• Join FlightAware (Why Join?)
  • Login
  • US Flag 
08:19AM EST


 

Airport Tracker/Info


-or-


 

Live Flight TrackerFlight Track Log ✈ UAL5914 ✈ 20-Apr-2013 ✈ KATL - KORD

Flight Track Log - Related Links

Times and Time Zones

All times are in EDT time to prevent confusion due to time zone crossing. See the UAL5914 flight status page for this flight to view local times or setup timezone preferences in your user account.

Time Position Orientation Groundspeed Altitude Reporting Facility
EDT Latitude Longitude Course Direction KTS MPH feet Rate Location/Type
11:38AM 33.6556 -84.4881 320° Northwest 450 518 4,000  Level Atlanta Center
11:39AM 33.6847 -84.5631 295° West 336 387 7,300 3,000 Climbing Atlanta Center
11:40AM 33.7533 -84.5836 346° North 265 305 10,000 1,800 Climbing Atlanta Center
11:41AM 33.8328 -84.5839 360° North 289 333 10,900 1,800 Climbing Atlanta Center
11:42AM 33.9286 -84.5844 360° North 326 375 13,600 2,500 Climbing Atlanta Center
11:43AM 34.0353 -84.5878 359° North 337 388 15,900 2,050 Climbing Atlanta Center
11:44AM 33.9395 -84.2728 320° Northwest  Level FlightAware Approximate
11:44AM 34.1375 -84.5908 359° North 351 404 17,700  Level Atlanta Center
11:45AM 34.2458 -84.5942 359° North 379 436 18,900 650 Climbing Atlanta Center
11:46AM 34.3564 -84.6025 356° North 394 453 19,000 1,150 Climbing Atlanta Center
11:47AM 34.4733 -84.6108 357° North 405 466 21,200 2,350 Climbing Atlanta Center
11:48AM 34.5861 -84.6192 357° North 405 466 23,700 2,500 Climbing Atlanta Center
11:49AM 34.6903 -84.6325 354° North 392 451 26,200 2,350 Climbing Atlanta Center
11:50AM 34.7944 -84.6408 356° North 379 436 28,400 2,050 Climbing Atlanta Center
11:51AM 34.8967 -84.6492 356° North 379 436 30,300 1,700 Climbing Atlanta Center
11:52AM 35.0031 -84.6575 356° North 374 430 31,800 1,500 Climbing Atlanta Center
11:53AM 35.1117 -84.6658 356° North 374 430 33,300 1,500 Climbing Atlanta Center
11:54AM 35.2222 -84.6769 355° North 387 445 34,800 1,350 Climbing Atlanta Center
11:55AM 35.3328 -84.6853 356° North 387 445 36,000 600 Climbing Atlanta Center
11:56AM 35.4494 -84.6964 356° North 402 463 36,000  Level Atlanta Center
11:57AM 35.5767 -84.7053 357° North 429 494 36,000  Level Atlanta Center
11:58AM 35.7081 -84.7192 355° North 453 521 36,000  Level Atlanta Center
12:01PM 36.0172 -84.7433 356° North 476 548 36,000  Level Indianapolis Center
12:02PM 36.1444 -84.7558 355° North 465 535 36,000  Level Indianapolis Center
12:03PM 36.2753 -84.7669 356° North 471 542 36,000  Level Indianapolis Center
12:04PM 36.4044 -84.7778 356° North 466 536 36,000  Level Indianapolis Center
12:05PM 36.5389 -84.7736 North 481 554 36,000  Level Indianapolis Center
12:06PM 36.6722 -84.7689 North 479 551 36,000 488 Level Indianapolis Center
12:07PM 36.8006 -84.7747 358° North 464 534 37,000 492 Climbing Indianapolis Center
12:08PM 36.9292 -84.7933 353° North 464 534 37,000  Level Indianapolis Center
12:09PM 37.0683 -84.8108 354° North 472 543 37,000  Level Indianapolis Center
12:10PM 37.2000 -84.8289 354° North 474 545 37,000  Level Indianapolis Center
12:11PM 37.3550 -84.8503 354° North 476 548 37,000  Level Indianapolis Center
12:12PM 37.4875 -84.8681 354° North 476 548 37,000  Level Indianapolis Center
12:13PM 37.6200 -84.8883 353° North 478 550 37,000  Level Indianapolis Center
12:14PM 37.7531 -84.9061 354° North 478 550 37,000 -197 Level Indianapolis Center
12:15PM 37.8850 -84.9222 354° North 476 548 36,600 -683 Descending Indianapolis Center
12:16PM 38.0136 -84.9397 354° North 466 536 35,600 -780 Descending Indianapolis Center
12:17PM 38.1403 -84.9575 354° North 458 527 35,000 -295 Descending Indianapolis Center
12:18PM 38.2594 -84.9886 348° North 439 505 35,000  Level Indianapolis Center
12:19PM 38.3800 -85.0261 346° North 446 513 35,000  Level Indianapolis Center
12:20PM 38.5233 -85.0686 347° North 449 517 35,000  Level Indianapolis Center
12:21PM 38.6408 -85.1053 346° North 440 506 35,000 -146 Level Indianapolis Center
12:22PM 38.7558 -85.1397 347° North 438 504 34,700 -689 Descending Indianapolis Center
12:23PM 38.8733 -85.1742 347° North 435 501 33,600 -1,082 Descending Indianapolis Center
12:24PM 38.9822 -85.2075 347° North 405 466 32,500 -1,073 Descending Indianapolis Center
12:25PM 39.0953 -85.2422 347° North 413 475 31,400 -1,024 Descending Indianapolis Center
12:26PM 39.2181 -85.2794 347° North 419 482 30,400 -934 Descending Indianapolis Center
12:27PM 39.3336 -85.3150 347° North 421 484 29,500 -927 Descending Indianapolis Center
12:28PM 39.4494 -85.3508 347° North 423 487 28,500 -732 Descending Indianapolis Center
12:29PM 39.5675 -85.3878 346° North 429 494 28,000 -246 Descending Indianapolis Center
12:30PM 39.6856 -85.4253 346° North 431 496 28,000 -98 Level Indianapolis Center
12:31PM 39.8028 -85.4608 347° North 429 494 27,800 -585 Descending Indianapolis Center
12:32PM 39.9211 -85.4972 347° North 431 496 26,800 -829 Descending Indianapolis Center
12:33PM 40.0344 -85.5331 346° North 421 484 26,100 -780 Descending Indianapolis Center
12:34PM 40.1472 -85.5697 346° North 415 478 25,200 -981 Descending Indianapolis Center
12:35PM 40.2347 -85.5953 347° North 415 478 24,400 -686 Descending Chicago Center
12:36PM 40.3456 -85.6306 346° North 412 474 24,000 -195 Descending Chicago Center
12:37PM 40.4542 -85.6647 347° North 405 466 24,000 -195 Level Chicago Center
12:38PM 40.5619 -85.7050 344° North 402 463 23,600 -484 Descending Chicago Center
12:39PM 40.6650 -85.7561 339° North 394 453 23,000 -290 Descending Chicago Center
12:40PM 40.7608 -85.8564 322° Northwest 369 425 23,000  Level Chicago Center
12:41PM 40.8433 -85.9417 322° Northwest 375 432 23,000  Level Chicago Center
12:42PM 40.9247 -86.0258 322° Northwest 373 429 23,000  Level Chicago Center
12:43PM 41.0078 -86.1108 322° Northwest 377 434 23,000 -242 Level Chicago Center
12:44PM 41.0897 -86.1961 322° Northwest 374 430 22,500 -1,016 Descending Chicago Center
12:45PM 41.1689 -86.2792 322° Northwest 364 419 20,900 -1,694 Descending Chicago Center
12:46PM 41.2467 -86.3611 322° Northwest 357 411 19,000 -1,951 Descending Chicago Center
12:47PM 41.3336 -86.4517 322° Northwest 331 381 16,900 -1,951 Descending Chicago Center
12:48PM 41.4033 -86.5253 322° Northwest 321 369 15,000 -1,694 Descending Chicago Center
12:49PM 41.4733 -86.5992 322° Northwest 322 371 13,400 -1,258 Descending Chicago Center
12:50PM 41.5453 -86.6750 322° Northwest 329 379 12,400 -677 Descending Chicago Center
12:51PM 41.6142 -86.7472 322° Northwest 317 365 12,000 -195 Descending Chicago Center
12:53PM 41.6928 -86.8000 333° Northwest 331 381 12,000  Level Chicago Center
12:54PM 41.7872 -86.8114 355° North 341 392 12,000 -97 Level Chicago Center
12:55PM 41.8806 -86.8706 335° Northwest 323 372 11,800 -581 Descending Chicago Center
12:56PM 41.9014 -86.9833 284° West 311 358 10,800 -871 Descending Chicago Center
12:57PM 41.9217 -87.0944 284° West 312 359 10,000 -581 Descending Chicago Center
12:58PM 41.9372 -87.1850 283° West 265 305 9,600 -537 Descending Chicago Center
12:59PM 41.9511 -87.2717 282° West 242 278 8,900 -683 Descending Chicago Center
01:00PM 41.9664 -87.3806 281° West 246 283 8,200 -659 Descending Chicago Center
01:00PM 41.9667 -87.4167 271° West 244 281 7,900 -651 Descending Chicago TRACON
01:01PM 41.9833 -87.5000 285° West 243 280 7,300 -1,316 Descending Chicago TRACON
01:02PM 41.9833 -87.5833 270° West 237 273 5,400 -1,684 Descending Chicago TRACON
01:03PM 41.9833 -87.6667 270° West 228 262 4,100 -1,368 Descending Chicago TRACON
01:04PM 41.9833 -87.7500 270° West 209 241 2,800 -1,050 Descending Chicago TRACON
01:05PM 41.9833 -87.8000 270° West 153 176 2,000 -750 Descending Chicago TRACON
01:06PM 41.9833 -87.8500 270° West 121 139 1,300 -700 Descending Chicago TRACON
01:08PM 41.9667 -87.9000 270° West  Level FlightAware Approximate